sensor_id;sensor_type;location;lat;lon;timestamp;pressure;altitude;pressure_sealevel;temperature;humidity
8298;BME280;4187;42.778;23.242;2022-08-19T00:01:56;95029.94;;;22.31;93.41
8298;BME280;4187;42.778;23.242;2022-08-19T00:04:24;95048.19;;;22.29;94.05
8298;BME280;4187;42.778;23.242;2022-08-19T00:06:52;95048.91;;;22.36;91.53
8298;BME280;4187;42.778;23.242;2022-08-19T00:09:22;95028.88;;;22.14;92.13
8298;BME280;4187;42.778;23.242;2022-08-19T00:11:49;95048.88;;;22.00;93.40
8298;BME280;4187;42.778;23.242;2022-08-19T00:14:17;95046.16;;;21.75;94.74
8298;BME280;4187;42.778;23.242;2022-08-19T00:16:45;95047.47;;;21.66;97.30
8298;BME280;4187;42.778;23.242;2022-08-19T00:19:13;95043.84;;;21.54;97.20
8298;BME280;4187;42.778;23.242;2022-08-19T00:21:39;95040.63;;;21.39;97.23
8298;BME280;4187;42.778;23.242;2022-08-19T00:24:07;95036.63;;;21.17;98.63
8298;BME280;4187;42.778;23.242;2022-08-19T00:26:36;95035.44;;;21.13;99.80
8298;BME280;4187;42.778;23.242;2022-08-19T00:29:04;95048.63;;;21.14;100.00
8298;BME280;4187;42.778;23.242;2022-08-19T00:31:31;95047.63;;;21.09;100.00
8298;BME280;4187;42.778;23.242;2022-08-19T00:33:58;95044.75;;;21.04;100.00
8298;BME280;4187;42.778;23.242;2022-08-19T00:36:25;95007.72;;;20.81;100.00
8298;BME280;4187;42.778;23.242;2022-08-19T00:38:54;95040.03;;;20.99;100.00
8298;BME280;4187;42.778;23.242;2022-08-19T00:41:23;95033.00;;;20.98;100.00
8298;BME280;4187;42.778;23.242;2022-08-19T00:43:59;95029.53;;;20.91;100.00
8298;BME280;4187;42.778;23.242;2022-08-19T00:46:27;95037.81;;;20.90;100.00
8298;BME280;4187;42.778;23.242;2022-08-19T00:48:54;95024.25;;;20.78;100.00
8298;BME280;4187;42.778;23.242;2022-08-19T00:51:22;95028.97;;;20.82;100.00
8298;BME280;4187;42.778;23.242;2022-08-19T00:53:50;95037.22;;;20.81;100.00
8298;BME280;4187;42.778;23.242;2022-08-19T00:56:17;95031.25;;;20.79;100.00
8298;BME280;4187;42.778;23.242;2022-08-19T00:58:44;95023.88;;;20.68;100.00
8298;BME280;4187;42.778;23.242;2022-08-19T01:01:12;95025.47;;;20.24;100.00
8298;BME280;4187;42.778;23.242;2022-08-19T01:03:39;95036.59;;;19.95;100.00
8298;BME280;4187;42.778;23.242;2022-08-19T01:06:06;95024.47;;;19.80;100.00
8298;BME280;4187;42.778;23.242;2022-08-19T01:08:33;95044.06;;;19.87;100.00
8298;BME280;4187;42.778;23.242;2022-08-19T01:11:02;95006.97;;;19.64;100.00
8298;BME280;4187;42.778;23.242;2022-08-19T01:13:32;95034.16;;;19.74;100.00
8298;BME280;4187;42.778;23.242;2022-08-19T01:16:02;95012.97;;;19.59;100.00
8298;BME280;4187;42.778;23.242;2022-08-19T01:18:32;95040.75;;;19.72;100.00
8298;BME280;4187;42.778;23.242;2022-08-19T01:21:05;95037.66;;;19.68;100.00
8298;BME280;4187;42.778;23.242;2022-08-19T01:23:35;95028.81;;;19.74;100.00
8298;BME280;4187;42.778;23.242;2022-08-19T01:26:14;95032.91;;;19.77;100.00
8298;BME280;4187;42.778;23.242;2022-08-19T01:28:41;95024.09;;;19.76;100.00
8298;BME280;4187;42.778;23.242;2022-08-19T01:31:12;95029.22;;;19.78;100.00
8298;BME280;4187;42.778;23.242;2022-08-19T01:33:39;95010.69;;;19.63;100.00
8298;BME280;4187;42.778;23.242;2022-08-19T01:36:08;95026.34;;;19.73;100.00
8298;BME280;4187;42.778;23.242;2022-08-19T01:38:39;95028.81;;;19.74;100.00
8298;BME280;4187;42.778;23.242;2022-08-19T01:41:06;95023.25;;;19.76;100.00
8298;BME280;4187;42.778;23.242;2022-08-19T01:43:33;95036.22;;;19.72;100.00
8298;BME280;4187;42.778;23.242;2022-08-19T01:46:01;95032.31;;;19.68;100.00
8298;BME280;4187;42.778;23.242;2022-08-19T01:48:33;95038.06;;;19.52;100.00
8298;BME280;4187;42.778;23.242;2022-08-19T01:51:00;95037.41;;;19.30;100.00
8298;BME280;4187;42.778;23.242;2022-08-19T01:53:27;95044.59;;;19.10;100.00
8298;BME280;4187;42.778;23.242;2022-08-19T01:55:56;95003.94;;;18.67;100.00
8298;BME280;4187;42.778;23.242;2022-08-19T01:58:26;95045.56;;;18.89;100.00
8298;BME280;4187;42.778;23.242;2022-08-19T02:00:54;95038.97;;;18.79;100.00
8298;BME280;4187;42.778;23.242;2022-08-19T02:03:21;95033.34;;;18.67;100.00
8298;BME280;4187;42.778;23.242;2022-08-19T02:05:54;95057.03;;;18.77;100.00
8298;BME280;4187;42.778;23.242;2022-08-19T02:08:21;95054.16;;;18.78;100.00
8298;BME280;4187;42.778;23.242;2022-08-19T02:10:48;95049.00;;;18.77;100.00
8298;BME280;4187;42.778;23.242;2022-08-19T02:13:17;95046.53;;;18.75;100.00
8298;BME280;4187;42.778;23.242;2022-08-19T02:15:44;95042.81;;;18.76;100.00
8298;BME280;4187;42.778;23.242;2022-08-19T02:18:12;95032.13;;;18.76;100.00
8298;BME280;4187;42.778;23.242;2022-08-19T02:20:40;95034.81;;;18.76;100.00
8298;BME280;4187;42.778;23.242;2022-08-19T02:23:09;95033.56;;;18.72;100.00
8298;BME280;4187;42.778;23.242;2022-08-19T02:25:37;95017.91;;;18.63;100.00
8298;BME280;4187;42.778;23.242;2022-08-19T02:28:04;95029.25;;;18.71;100.00
8298;BME280;4187;42.778;23.242;2022-08-19T02:30:33;95036.25;;;18.72;100.00
8298;BME280;4187;42.778;23.242;2022-08-19T02:33:00;95040.78;;;18.78;100.00
8298;BME280;4187;42.778;23.242;2022-08-19T02:35:26;95043.88;;;18.82;100.00
8298;BME280;4187;42.778;23.242;2022-08-19T02:37:53;95046.38;;;18.83;100.00
8298;BME280;4187;42.778;23.242;2022-08-19T02:40:38;95040.41;;;18.88;100.00
8298;BME280;4187;42.778;23.242;2022-08-19T02:43:08;95038.53;;;18.75;100.00
8298;BME280;4187;42.778;23.242;2022-08-19T02:45:38;95042.59;;;18.71;100.00
8298;BME280;4187;42.778;23.242;2022-08-19T02:48:05;95045.09;;;18.73;100.00
8298;BME280;4187;42.778;23.242;2022-08-19T02:50:37;95035.63;;;18.70;100.00
8298;BME280;4187;42.778;23.242;2022-08-19T02:53:04;95039.94;;;18.71;100.00
8298;BME280;4187;42.778;23.242;2022-08-19T02:55:32;95045.66;;;18.62;100.00
8298;BME280;4187;42.778;23.242;2022-08-19T02:57:59;95045.06;;;18.60;100.00
8298;BME280;4187;42.778;23.242;2022-08-19T03:00:26;95046.28;;;18.57;100.00
8298;BME280;4187;42.778;23.242;2022-08-19T03:02:55;95054.47;;;18.56;100.00
8298;BME280;4187;42.778;23.242;2022-08-19T03:05:22;95012.19;;;18.31;100.00
8298;BME280;4187;42.778;23.242;2022-08-19T03:07:49;94998.00;;;18.24;100.00
8298;BME280;4187;42.778;23.242;2022-08-19T03:10:16;95039.44;;;18.55;100.00
8298;BME280;4187;42.778;23.242;2022-08-19T03:12:43;95037.22;;;18.52;100.00
8298;BME280;4187;42.778;23.242;2022-08-19T03:15:11;95040.50;;;18.54;100.00
8298;BME280;4187;42.778;23.242;2022-08-19T03:17:38;94977.19;;;18.13;100.00
8298;BME280;4187;42.778;23.242;2022-08-19T03:20:07;95037.09;;;18.38;100.00
8298;BME280;4187;42.778;23.242;2022-08-19T03:22:34;95045.31;;;18.37;100.00
8298;BME280;4187;42.778;23.242;2022-08-19T03:25:01;95052.06;;;18.33;100.00
8298;BME280;4187;42.778;23.242;2022-08-19T03:27:28;95057.41;;;18.33;100.00
8298;BME280;4187;42.778;23.242;2022-08-19T03:29:55;95049.81;;;18.30;100.00
8298;BME280;4187;42.778;23.242;2022-08-19T03:32:22;95058.22;;;18.27;100.00
8298;BME280;4187;42.778;23.242;2022-08-19T03:34:49;95031.38;;;18.07;100.00
8298;BME280;4187;42.778;23.242;2022-08-19T03:37:17;95053.22;;;18.17;100.00
8298;BME280;4187;42.778;23.242;2022-08-19T03:39:44;95063.72;;;18.19;100.00
8298;BME280;4187;42.778;23.242;2022-08-19T03:42:11;95065.31;;;18.13;100.00
8298;BME280;4187;42.778;23.242;2022-08-19T03:44:38;95061.75;;;18.06;100.00
8298;BME280;4187;42.778;23.242;2022-08-19T03:47:07;95068.16;;;18.05;100.00
8298;BME280;4187;42.778;23.242;2022-08-19T03:49:34;95066.47;;;18.04;100.00
8298;BME280;4187;42.778;23.242;2022-08-19T03:52:02;95072.66;;;18.05;100.00
8298;BME280;4187;42.778;23.242;2022-08-19T03:54:34;95070.84;;;18.12;100.00
8298;BME280;4187;42.778;23.242;2022-08-19T03:57:02;95065.13;;;18.15;100.00
8298;BME280;4187;42.778;23.242;2022-08-19T03:59:32;95074.16;;;18.14;100.00
8298;BME280;4187;42.778;23.242;2022-08-19T04:02:05;95076.19;;;18.12;100.00
8298;BME280;4187;42.778;23.242;2022-08-19T04:04:34;95088.59;;;18.19;100.00
8298;BME280;4187;42.778;23.242;2022-08-19T04:07:02;95077.63;;;18.14;100.00
8298;BME280;4187;42.778;23.242;2022-08-19T04:09:29;95079.75;;;18.19;100.00
8298;BME280;4187;42.778;23.242;2022-08-19T04:11:58;95088.38;;;18.21;100.00
8298;BME280;4187;42.778;23.242;2022-08-19T04:14:27;95082.41;;;18.19;100.00
8298;BME280;4187;42.778;23.242;2022-08-19T04:16:55;95080.34;;;18.21;100.00
8298;BME280;4187;42.778;23.242;2022-08-19T04:19:22;95092.72;;;18.28;100.00
8298;BME280;4187;42.778;23.242;2022-08-19T04:21:52;95082.88;;;18.29;100.00
8298;BME280;4187;42.778;23.242;2022-08-19T04:24:20;95087.63;;;18.33;100.00
8298;BME280;4187;42.778;23.242;2022-08-19T04:26:47;95088.88;;;18.37;100.00
8298;BME280;4187;42.778;23.242;2022-08-19T04:29:19;95088.50;;;18.40;100.00
8298;BME280;4187;42.778;23.242;2022-08-19T04:31:47;95091.06;;;18.55;100.00
8298;BME280;4187;42.778;23.242;2022-08-19T04:34:16;95094.38;;;18.57;100.00
8298;BME280;4187;42.778;23.242;2022-08-19T04:36:44;95099.06;;;18.55;100.00
8298;BME280;4187;42.778;23.242;2022-08-19T04:39:13;95100.28;;;18.52;100.00
8298;BME280;4187;42.778;23.242;2022-08-19T04:41:41;95104.66;;;18.60;100.00
8298;BME280;4187;42.778;23.242;2022-08-19T04:44:27;95107.97;;;18.62;100.00
8298;BME280;4187;42.778;23.242;2022-08-19T04:46:56;95072.13;;;18.50;100.00
8298;BME280;4187;42.778;23.242;2022-08-19T04:49:23;95100.22;;;18.80;100.00
8298;BME280;4187;42.778;23.242;2022-08-19T04:51:52;95100.06;;;18.88;100.00
8298;BME280;4187;42.778;23.242;2022-08-19T04:54:21;95096.16;;;18.91;100.00
8298;BME280;4187;42.778;23.242;2022-08-19T04:56:51;95103.41;;;19.03;100.00
8298;BME280;4187;42.778;23.242;2022-08-19T04:59:19;95103.66;;;19.08;100.00
8298;BME280;4187;42.778;23.242;2022-08-19T05:01:47;95104.91;;;19.19;100.00
8298;BME280;4187;42.778;23.242;2022-08-19T05:04:16;95083.91;;;19.16;100.00
8298;BME280;4187;42.778;23.242;2022-08-19T05:06:44;95096.69;;;19.34;100.00
8298;BME280;4187;42.778;23.242;2022-08-19T05:09:12;95112.81;;;19.53;100.00
8298;BME280;4187;42.778;23.242;2022-08-19T05:11:39;95108.72;;;19.64;100.00
8298;BME280;4187;42.778;23.242;2022-08-19T05:14:07;95108.53;;;19.79;100.00
8298;BME280;4187;42.778;23.242;2022-08-19T05:16:34;95109.16;;;19.94;100.00
8298;BME280;4187;42.778;23.242;2022-08-19T05:19:02;95111.63;;;20.08;100.00
8298;BME280;4187;42.778;23.242;2022-08-19T05:21:47;95117.56;;;20.23;100.00
8298;BME280;4187;42.778;23.242;2022-08-19T05:24:31;95117.59;;;20.37;100.00
8298;BME280;4187;42.778;23.242;2022-08-19T05:27:00;95115.94;;;20.49;100.00
8298;BME280;4187;42.778;23.242;2022-08-19T05:29:29;95112.16;;;20.63;100.00
8298;BME280;4187;42.778;23.242;2022-08-19T05:31:57;95118.97;;;20.72;100.00
8298;BME280;4187;42.778;23.242;2022-08-19T05:34:26;95120.38;;;20.81;100.00
8298;BME280;4187;42.778;23.242;2022-08-19T05:36:55;95100.56;;;20.82;100.00
8298;BME280;4187;42.778;23.242;2022-08-19T05:39:24;95120.50;;;21.06;100.00
8298;BME280;4187;42.778;23.242;2022-08-19T05:41:55;95116.78;;;21.13;100.00
8298;BME280;4187;42.778;23.242;2022-08-19T05:44:23;95110.56;;;21.19;100.00
8298;BME280;4187;42.778;23.242;2022-08-19T05:46:52;95125.28;;;21.41;100.00
8298;BME280;4187;42.778;23.242;2022-08-19T05:49:21;95121.91;;;21.53;100.00
8298;BME280;4187;42.778;23.242;2022-08-19T05:51:50;95123.50;;;21.67;100.00
8298;BME280;4187;42.778;23.242;2022-08-19T05:54:17;95121.13;;;21.77;100.00
8298;BME280;4187;42.778;23.242;2022-08-19T05:56:45;95117.59;;;21.89;100.00
8298;BME280;4187;42.778;23.242;2022-08-19T05:59:13;95122.19;;;22.07;100.00
8298;BME280;4187;42.778;23.242;2022-08-19T06:01:42;95119.38;;;22.20;100.00
8298;BME280;4187;42.778;23.242;2022-08-19T06:04:10;95126.31;;;22.34;100.00
8298;BME280;4187;42.778;23.242;2022-08-19T06:06:37;95112.56;;;22.42;100.00
8298;BME280;4187;42.778;23.242;2022-08-19T06:09:06;95125.88;;;22.55;100.00
8298;BME280;4187;42.778;23.242;2022-08-19T06:11:37;95125.78;;;22.69;100.00
8298;BME280;4187;42.778;23.242;2022-08-19T06:14:06;95129.97;;;22.83;99.53
8298;BME280;4187;42.778;23.242;2022-08-19T06:16:34;95131.53;;;22.90;100.00
8298;BME280;4187;42.778;23.242;2022-08-19T06:19:04;95135.06;;;23.09;99.20
8298;BME280;4187;42.778;23.242;2022-08-19T06:21:33;95127.59;;;23.11;97.87
8298;BME280;4187;42.778;23.242;2022-08-19T06:24:03;95109.03;;;23.21;97.66
8298;BME280;4187;42.778;23.242;2022-08-19T06:26:33;95129.22;;;23.48;96.59
8298;BME280;4187;42.778;23.242;2022-08-19T06:29:01;95128.13;;;23.67;97.22
8298;BME280;4187;42.778;23.242;2022-08-19T06:31:28;95113.88;;;23.78;95.62
8298;BME280;4187;42.778;23.242;2022-08-19T06:33:59;95131.13;;;24.01;93.97
8298;BME280;4187;42.778;23.242;2022-08-19T06:36:29;95126.38;;;24.14;94.47
8298;BME280;4187;42.778;23.242;2022-08-19T06:38:57;95111.41;;;24.30;93.77
8298;BME280;4187;42.778;23.242;2022-08-19T06:41:24;95127.84;;;24.52;92.11
8298;BME280;4187;42.778;23.242;2022-08-19T06:43:53;95129.22;;;24.66;90.35
8298;BME280;4187;42.778;23.242;2022-08-19T06:46:21;95132.91;;;24.83;89.02
8298;BME280;4187;42.778;23.242;2022-08-19T06:48:48;95132.88;;;24.94;86.90
8298;BME280;4187;42.778;23.242;2022-08-19T06:51:17;95129.09;;;25.07;85.97
8298;BME280;4187;42.778;23.242;2022-08-19T06:53:45;95131.31;;;25.22;88.15
8298;BME280;4187;42.778;23.242;2022-08-19T06:56:13;95134.88;;;25.39;87.32
8298;BME280;4187;42.778;23.242;2022-08-19T06:58:40;95123.25;;;25.50;84.36
8298;BME280;4187;42.778;23.242;2022-08-19T07:01:09;95138.31;;;25.74;84.00
8298;BME280;4187;42.778;23.242;2022-08-19T07:03:37;95139.53;;;25.95;83.64
8298;BME280;4187;42.778;23.242;2022-08-19T07:06:05;95148.47;;;26.12;83.06
8298;BME280;4187;42.778;23.242;2022-08-19T07:08:33;95118.50;;;26.13;80.01
8298;BME280;4187;42.778;23.242;2022-08-19T07:11:02;95139.59;;;26.45;80.98
8298;BME280;4187;42.778;23.242;2022-08-19T07:13:28;95134.56;;;26.70;79.50
8298;BME280;4187;42.778;23.242;2022-08-19T07:16:03;95140.28;;;26.90;79.08
8298;BME280;4187;42.778;23.242;2022-08-19T07:18:31;95131.25;;;27.01;78.53
8298;BME280;4187;42.778;23.242;2022-08-19T07:21:03;95138.28;;;27.19;76.36
8298;BME280;4187;42.778;23.242;2022-08-19T07:23:30;95141.88;;;27.24;75.09
8298;BME280;4187;42.778;23.242;2022-08-19T07:25:58;95143.94;;;27.39;75.63
8298;BME280;4187;42.778;23.242;2022-08-19T07:28:25;95133.50;;;27.48;72.67
8298;BME280;4187;42.778;23.242;2022-08-19T07:30:52;95143.47;;;27.64;73.73
8298;BME280;4187;42.778;23.242;2022-08-19T07:33:19;95139.00;;;27.79;73.23
8298;BME280;4187;42.778;23.242;2022-08-19T07:35:47;95144.31;;;27.91;71.58
8298;BME280;4187;42.778;23.242;2022-08-19T07:38:15;95135.66;;;27.94;70.69
8298;BME280;4187;42.778;23.242;2022-08-19T07:40:43;95083.03;;;27.68;71.04
8298;BME280;4187;42.778;23.242;2022-08-19T07:43:11;95138.91;;;28.18;72.32
8298;BME280;4187;42.778;23.242;2022-08-19T07:45:38;95138.22;;;28.32;68.53
8298;BME280;4187;42.778;23.242;2022-08-19T07:48:05;95128.00;;;28.44;70.76
8298;BME280;4187;42.778;23.242;2022-08-19T07:50:32;95127.94;;;28.66;72.81
8298;BME280;4187;42.778;23.242;2022-08-19T07:53:00;95120.75;;;28.87;71.84
8298;BME280;4187;42.778;23.242;2022-08-19T07:55:27;95127.69;;;29.15;71.42
8298;BME280;4187;42.778;23.242;2022-08-19T07:57:54;95116.94;;;29.30;69.70
8298;BME280;4187;42.778;23.242;2022-08-19T08:00:21;95138.00;;;29.59;68.73
8298;BME280;4187;42.778;23.242;2022-08-19T08:02:48;95142.13;;;29.77;65.39
8298;BME280;4187;42.778;23.242;2022-08-19T08:05:14;95135.94;;;29.92;64.36
8298;BME280;4187;42.778;23.242;2022-08-19T08:08:05;95132.97;;;29.98;63.57
8298;BME280;4187;42.778;23.242;2022-08-19T08:10:52;95093.97;;;29.73;61.73
8298;BME280;4187;42.778;23.242;2022-08-19T08:13:19;95109.22;;;29.79;62.71
8298;BME280;4187;42.778;23.242;2022-08-19T08:15:46;95125.09;;;30.02;64.64
8298;BME280;4187;42.778;23.242;2022-08-19T08:18:13;95124.84;;;30.23;64.21
8298;BME280;4187;42.778;23.242;2022-08-19T08:20:39;95119.72;;;30.37;61.80
8298;BME280;4187;42.778;23.242;2022-08-19T08:23:08;95125.41;;;30.36;61.03
8298;BME280;4187;42.778;23.242;2022-08-19T08:25:51;95108.81;;;30.47;64.99
8298;BME280;4187;42.778;23.242;2022-08-19T08:28:20;95120.78;;;30.71;62.15
8298;BME280;4187;42.778;23.242;2022-08-19T08:30:48;95119.97;;;30.76;60.70
8298;BME280;4187;42.778;23.242;2022-08-19T08:33:18;95111.00;;;30.65;58.89
8298;BME280;4187;42.778;23.242;2022-08-19T08:35:45;95114.78;;;30.79;61.03
8298;BME280;4187;42.778;23.242;2022-08-19T08:38:14;95094.34;;;30.97;60.28
8298;BME280;4187;42.778;23.242;2022-08-19T08:40:44;95116.03;;;31.37;60.14
8298;BME280;4187;42.778;23.242;2022-08-19T08:43:22;95114.56;;;31.70;59.79
8298;BME280;4187;42.778;23.242;2022-08-19T08:45:56;95116.88;;;32.02;55.98
8298;BME280;4187;42.778;23.242;2022-08-19T08:48:34;95109.94;;;32.20;56.25
8298;BME280;4187;42.778;23.242;2022-08-19T08:51:05;95113.16;;;32.27;54.81
8298;BME280;4187;42.778;23.242;2022-08-19T08:53:36;95107.88;;;32.40;52.77
8298;BME280;4187;42.778;23.242;2022-08-19T08:56:06;95112.72;;;32.53;52.06
8298;BME280;4187;42.778;23.242;2022-08-19T08:58:47;95065.56;;;32.38;56.81
8298;BME280;4187;42.778;23.242;2022-08-19T09:01:16;95102.66;;;32.78;51.25
8298;BME280;4187;42.778;23.242;2022-08-19T09:03:44;95097.59;;;32.95;48.06
8298;BME280;4187;42.778;23.242;2022-08-19T09:06:16;95085.59;;;33.20;51.21
8298;BME280;4187;42.778;23.242;2022-08-19T09:08:49;95094.13;;;33.37;45.47
8298;BME280;4187;42.778;23.242;2022-08-19T09:11:25;95082.38;;;33.36;46.86
8298;BME280;4187;42.778;23.242;2022-08-19T09:14:07;95080.84;;;33.49;45.34
8298;BME280;4187;42.778;23.242;2022-08-19T09:16:38;95056.41;;;33.34;45.49
8298;BME280;4187;42.778;23.242;2022-08-19T09:19:06;95080.84;;;33.49;41.43
8298;BME280;4187;42.778;23.242;2022-08-19T09:21:34;95079.13;;;33.58;44.17
8298;BME280;4187;42.778;23.242;2022-08-19T09:24:03;95075.69;;;33.71;43.73
8298;BME280;4187;42.778;23.242;2022-08-19T09:26:31;95079.59;;;33.84;43.70
8298;BME280;4187;42.778;23.242;2022-08-19T09:28:59;95073.22;;;33.88;46.07
8298;BME280;4187;42.778;23.242;2022-08-19T09:31:28;95080.31;;;34.13;46.76
8298;BME280;4187;42.778;23.242;2022-08-19T09:33:56;95055.06;;;34.16;43.08
8298;BME280;4187;42.778;23.242;2022-08-19T09:36:24;95069.69;;;34.44;39.00
8298;BME280;4187;42.778;23.242;2022-08-19T09:38:54;95067.22;;;34.42;37.73
8298;BME280;4187;42.778;23.242;2022-08-19T09:41:24;95070.59;;;34.58;40.24
8298;BME280;4187;42.778;23.242;2022-08-19T09:43:53;95063.75;;;34.88;41.57
8298;BME280;4187;42.778;23.242;2022-08-19T09:46:22;95056.66;;;35.00;36.19
8298;BME280;4187;42.778;23.242;2022-08-19T09:48:49;95071.47;;;34.99;35.29
8298;BME280;4187;42.778;23.242;2022-08-19T09:51:20;95045.41;;;34.69;35.70
8298;BME280;4187;42.778;23.242;2022-08-19T09:53:49;95057.97;;;34.57;34.87
8298;BME280;4187;42.778;23.242;2022-08-19T09:56:18;95055.75;;;34.40;35.70
8298;BME280;4187;42.778;23.242;2022-08-19T09:58:47;95057.56;;;34.12;35.72
8298;BME280;4187;42.778;23.242;2022-08-19T10:01:18;95045.00;;;34.11;39.86
8298;BME280;4187;42.778;23.242;2022-08-19T10:03:47;95046.22;;;34.00;36.30
8298;BME280;4187;42.778;23.242;2022-08-19T10:06:16;95047.25;;;34.04;36.01
8298;BME280;4187;42.778;23.242;2022-08-19T10:08:44;95035.06;;;34.15;35.30
8298;BME280;4187;42.778;23.242;2022-08-19T10:11:11;95028.91;;;34.23;36.04
8298;BME280;4187;42.778;23.242;2022-08-19T10:13:42;95039.03;;;34.74;40.99
8298;BME280;4187;42.778;23.242;2022-08-19T10:16:12;95031.06;;;35.18;40.02
8298;BME280;4187;42.778;23.242;2022-08-19T10:18:40;94985.75;;;35.34;36.56
8298;BME280;4187;42.778;23.242;2022-08-19T10:21:10;95033.84;;;35.95;36.11
8298;BME280;4187;42.778;23.242;2022-08-19T10:23:40;95027.94;;;36.02;38.24
8298;BME280;4187;42.778;23.242;2022-08-19T10:26:10;95031.44;;;35.80;33.50
8298;BME280;4187;42.778;23.242;2022-08-19T10:28:37;95034.78;;;35.77;35.90
8298;BME280;4187;42.778;23.242;2022-08-19T10:31:06;95025.78;;;35.98;35.94
8298;BME280;4187;42.778;23.242;2022-08-19T10:33:35;95026.59;;;36.13;36.56
8298;BME280;4187;42.778;23.242;2022-08-19T10:36:04;95028.75;;;36.02;36.90
8298;BME280;4187;42.778;23.242;2022-08-19T10:38:32;95026.09;;;35.97;35.26
8298;BME280;4187;42.778;23.242;2022-08-19T10:41:07;94984.53;;;35.90;35.99
8298;BME280;4187;42.778;23.242;2022-08-19T10:43:34;95004.53;;;36.04;33.27
8298;BME280;4187;42.778;23.242;2022-08-19T10:46:04;95005.56;;;35.94;35.45
8298;BME280;4187;42.778;23.242;2022-08-19T10:48:31;95021.03;;;35.90;32.63
8298;BME280;4187;42.778;23.242;2022-08-19T10:51:00;95018.31;;;35.77;34.39
8298;BME280;4187;42.778;23.242;2022-08-19T10:53:45;95017.16;;;35.91;33.61
8298;BME280;4187;42.778;23.242;2022-08-19T10:56:12;95012.16;;;36.07;32.63
8298;BME280;4187;42.778;23.242;2022-08-19T10:58:56;95013.88;;;36.17;32.27
8298;BME280;4187;42.778;23.242;2022-08-19T11:01:24;95016.53;;;36.08;32.47
8298;BME280;4187;42.778;23.242;2022-08-19T11:03:51;95016.75;;;36.12;34.45
8298;BME280;4187;42.778;23.242;2022-08-19T11:06:19;95008.78;;;36.32;34.20
8298;BME280;4187;42.778;23.242;2022-08-19T11:08:46;95004.28;;;36.58;35.04
8298;BME280;4187;42.778;23.242;2022-08-19T11:11:13;94998.91;;;36.76;31.45
8298;BME280;4187;42.778;23.242;2022-08-19T11:13:41;94996.44;;;36.66;33.17
8298;BME280;4187;42.778;23.242;2022-08-19T11:16:12;94992.31;;;36.54;32.55
8298;BME280;4187;42.778;23.242;2022-08-19T11:18:42;94994.63;;;36.39;33.07
8298;BME280;4187;42.778;23.242;2022-08-19T11:21:12;94987.78;;;36.36;32.90
8298;BME280;4187;42.778;23.242;2022-08-19T11:23:41;94993.13;;;36.33;31.73
8298;BME280;4187;42.778;23.242;2022-08-19T11:26:08;94986.75;;;36.24;33.15
8298;BME280;4187;42.778;23.242;2022-08-19T11:28:35;94978.38;;;36.07;32.49
8298;BME280;4187;42.778;23.242;2022-08-19T11:31:03;94976.22;;;36.17;32.90
8298;BME280;4187;42.778;23.242;2022-08-19T11:33:30;94978.22;;;36.25;34.02
8298;BME280;4187;42.778;23.242;2022-08-19T11:35:58;94977.53;;;36.20;32.95
8298;BME280;4187;42.778;23.242;2022-08-19T11:38:26;94969.84;;;35.94;34.07
8298;BME280;4187;42.778;23.242;2022-08-19T11:41:00;94968.19;;;35.85;33.62
8298;BME280;4187;42.778;23.242;2022-08-19T11:43:28;94960.50;;;35.95;33.42
8298;BME280;4187;42.778;23.242;2022-08-19T11:45:57;94933.59;;;35.84;34.01
8298;BME280;4187;42.778;23.242;2022-08-19T11:48:25;94930.97;;;35.79;34.66
8298;BME280;4187;42.778;23.242;2022-08-19T11:50:53;94953.22;;;36.13;36.51
8298;BME280;4187;42.778;23.242;2022-08-19T11:53:21;94955.56;;;36.50;35.48
8298;BME280;4187;42.778;23.242;2022-08-19T11:55:49;94947.13;;;36.78;33.93
8298;BME280;4187;42.778;23.242;2022-08-19T11:58:19;94948.53;;;36.67;31.56
8298;BME280;4187;42.778;23.242;2022-08-19T12:00:46;94941.28;;;36.71;31.42
8298;BME280;4187;42.778;23.242;2022-08-19T12:03:13;94933.09;;;36.88;33.19
8298;BME280;4187;42.778;23.242;2022-08-19T12:05:40;94930.72;;;36.95;30.28
8298;BME280;4187;42.778;23.242;2022-08-19T12:08:08;94899.16;;;36.53;33.59
8298;BME280;4187;42.778;23.242;2022-08-19T12:10:36;94921.25;;;36.79;32.96
8298;BME280;4187;42.778;23.242;2022-08-19T12:13:03;94920.94;;;36.80;31.59
8298;BME280;4187;42.778;23.242;2022-08-19T12:15:36;94927.69;;;36.74;31.54
8298;BME280;4187;42.778;23.242;2022-08-19T12:18:04;94915.63;;;36.84;35.30
8298;BME280;4187;42.778;23.242;2022-08-19T12:20:34;94913.94;;;37.05;30.66
8298;BME280;4187;42.778;23.242;2022-08-19T12:23:01;94903.00;;;36.91;32.07
8298;BME280;4187;42.778;23.242;2022-08-19T12:25:28;94914.13;;;37.17;32.02
8298;BME280;4187;42.778;23.242;2022-08-19T12:27:56;94902.97;;;37.22;32.23
8298;BME280;4187;42.778;23.242;2022-08-19T12:30:23;94914.03;;;37.48;30.48
8298;BME280;4187;42.778;23.242;2022-08-19T12:32:53;94907.22;;;37.45;31.15
8298;BME280;4187;42.778;23.242;2022-08-19T12:35:20;94910.91;;;37.32;31.10
8298;BME280;4187;42.778;23.242;2022-08-19T12:37:47;94888.19;;;37.09;29.46
8298;BME280;4187;42.778;23.242;2022-08-19T12:40:15;94906.69;;;37.35;33.36
8298;BME280;4187;42.778;23.242;2022-08-19T12:42:43;94899.78;;;37.46;30.01
8298;BME280;4187;42.778;23.242;2022-08-19T12:45:11;94894.75;;;37.48;33.65
8298;BME280;4187;42.778;23.242;2022-08-19T12:47:39;94877.03;;;37.23;30.96
8298;BME280;4187;42.778;23.242;2022-08-19T12:50:07;94878.75;;;36.85;31.17
8298;BME280;4187;42.778;23.242;2022-08-19T12:52:36;94879.53;;;36.85;32.98
8298;BME280;4187;42.778;23.242;2022-08-19T12:55:05;94846.28;;;36.95;33.36
8298;BME280;4187;42.778;23.242;2022-08-19T12:57:32;94876.72;;;37.16;32.62
8298;BME280;4187;42.778;23.242;2022-08-19T13:00:05;94848.69;;;36.97;30.27
8298;BME280;4187;42.778;23.242;2022-08-19T13:02:35;94875.59;;;37.26;33.72
8298;BME280;4187;42.778;23.242;2022-08-19T13:05:03;94873.56;;;37.57;34.23
8298;BME280;4187;42.778;23.242;2022-08-19T13:07:32;94863.84;;;37.68;30.33
8298;BME280;4187;42.778;23.242;2022-08-19T13:10:00;94856.03;;;37.61;30.86
8298;BME280;4187;42.778;23.242;2022-08-19T13:12:27;94864.47;;;37.82;30.53
8298;BME280;4187;42.778;23.242;2022-08-19T13:14:54;94862.84;;;37.98;30.20
8298;BME280;4187;42.778;23.242;2022-08-19T13:34:32;94843.78;;;36.94;30.89